Etusivu
METAR-TAF:

METAR-TAF

Lentoasemat :

Raymond, Mississippi, Yhdysvallat

Leveyspiiri: 32-18-16N, Pituuspiiri: 090-24-38W, korkeus merenpinnasta: 75 m

Tämänhetkinen sää

Tämä raportti tehtiin 25 minuuttia sitten, kello 21.35 UTC
Tuuli 4 kn eri suunnista
Lämpötila 15°C
Kosteus 31%
Ilmanpaine 1020 hPa
Näkyvyys: 16.1 km
selkeää

METAR: KJVW 162135Z AUTO VRB04KT 10SM CLR 15/M02 A3011 RMK AO2

Aika: 16:00 (22:00 UTC)


TAF: puuttuu

Säähavainnot ja -ennusteet yli 4000 lentoasemalta (METAR- ja TAF-raportit).

Käytössä olevat sääasemat on merkitty karttaan keltaisilla ja punaisilla pisteillä.

Aseta hiiri pisteen päälle nähdäksesi sääaseman nimen.

Klikkaa sitten nähdäksesi säähavainnot ja -ennusteet.

Kartan vaihtaminen: klikkaa mustalla rastilla varustettuja vihreitä pisteitä, niin voit zoomata sisään; viivalla varustettua vihreää pistettä, niin voit zoomata ulos tai vihreitä nuolia, niin pääset viereisille kartoille.


METAR-TAF: